sensor_id;sensor_type;location;lat;lon;timestamp;temperature;humidity
44767;DHT22;30487;48.716;9.272;2022-07-09T00:02:16;16.30;83.00
44767;DHT22;30487;48.716;9.272;2022-07-09T00:04:41;16.20;83.70
44767;DHT22;30487;48.716;9.272;2022-07-09T00:07:07;16.10;84.50
44767;DHT22;30487;48.716;9.272;2022-07-09T00:09:32;16.10;85.90
44767;DHT22;30487;48.716;9.272;2022-07-09T00:11:58;16.10;85.90
44767;DHT22;30487;48.716;9.272;2022-07-09T00:14:23;16.10;86.00
44767;DHT22;30487;48.716;9.272;2022-07-09T00:16:49;16.10;86.10
44767;DHT22;30487;48.716;9.272;2022-07-09T00:19:14;16.10;86.40
44767;DHT22;30487;48.716;9.272;2022-07-09T00:21:40;15.90;86.70
44767;DHT22;30487;48.716;9.272;2022-07-09T00:24:05;15.80;87.50
44767;DHT22;30487;48.716;9.272;2022-07-09T00:26:31;15.80;87.50
44767;DHT22;30487;48.716;9.272;2022-07-09T00:28:57;15.90;87.10
44767;DHT22;30487;48.716;9.272;2022-07-09T00:31:22;15.80;86.80
44767;DHT22;30487;48.716;9.272;2022-07-09T00:33:47;15.90;87.40
44767;DHT22;30487;48.716;9.272;2022-07-09T00:36:13;15.90;88.10
44767;DHT22;30487;48.716;9.272;2022-07-09T00:38:38;16.00;88.30
44767;DHT22;30487;48.716;9.272;2022-07-09T00:41:04;16.00;88.60
44767;DHT22;30487;48.716;9.272;2022-07-09T00:43:30;16.00;88.90
44767;DHT22;30487;48.716;9.272;2022-07-09T00:45:56;16.00;89.00
44767;DHT22;30487;48.716;9.272;2022-07-09T00:48:21;15.90;89.10
44767;DHT22;30487;48.716;9.272;2022-07-09T00:50:47;15.90;89.70
44767;DHT22;30487;48.716;9.272;2022-07-09T00:53:13;15.90;90.00
44767;DHT22;30487;48.716;9.272;2022-07-09T00:55:39;15.90;90.30
44767;DHT22;30487;48.716;9.272;2022-07-09T00:58:04;15.80;90.40
44767;DHT22;30487;48.716;9.272;2022-07-09T01:00:31;15.80;90.70
44767;DHT22;30487;48.716;9.272;2022-07-09T01:02:57;15.80;91.00
44767;DHT22;30487;48.716;9.272;2022-07-09T01:05:23;15.80;91.10
44767;DHT22;30487;48.716;9.272;2022-07-09T01:07:48;15.90;91.10
44767;DHT22;30487;48.716;9.272;2022-07-09T01:10:14;15.90;91.10
44767;DHT22;30487;48.716;9.272;2022-07-09T01:12:39;15.80;91.40
44767;DHT22;30487;48.716;9.272;2022-07-09T01:15:05;15.90;91.60
44767;DHT22;30487;48.716;9.272;2022-07-09T01:17:40;15.80;91.80
44767;DHT22;30487;48.716;9.272;2022-07-09T01:20:06;15.90;91.90
44767;DHT22;30487;48.716;9.272;2022-07-09T01:22:32;15.90;91.80
44767;DHT22;30487;48.716;9.272;2022-07-09T01:24:58;15.90;92.00
44767;DHT22;30487;48.716;9.272;2022-07-09T01:27:24;15.80;92.20
44767;DHT22;30487;48.716;9.272;2022-07-09T01:29:49;15.70;92.60
44767;DHT22;30487;48.716;9.272;2022-07-09T01:32:18;15.70;92.60
44767;DHT22;30487;48.716;9.272;2022-07-09T01:34:43;15.70;92.80
44767;DHT22;30487;48.716;9.272;2022-07-09T01:37:09;15.70;92.90
44767;DHT22;30487;48.716;9.272;2022-07-09T01:39:34;15.70;93.00
44767;DHT22;30487;48.716;9.272;2022-07-09T01:42:00;15.60;93.30
44767;DHT22;30487;48.716;9.272;2022-07-09T01:44:25;15.50;93.60
44767;DHT22;30487;48.716;9.272;2022-07-09T01:46:51;15.40;93.70
44767;DHT22;30487;48.716;9.272;2022-07-09T01:49:16;15.30;94.00
44767;DHT22;30487;48.716;9.272;2022-07-09T01:51:42;15.30;94.30
44767;DHT22;30487;48.716;9.272;2022-07-09T01:54:07;15.30;94.40
44767;DHT22;30487;48.716;9.272;2022-07-09T01:56:33;15.30;94.50
44767;DHT22;30487;48.716;9.272;2022-07-09T01:59:00;15.20;94.60
44767;DHT22;30487;48.716;9.272;2022-07-09T02:01:25;15.20;94.80
44767;DHT22;30487;48.716;9.272;2022-07-09T02:03:51;15.20;94.90
44767;DHT22;30487;48.716;9.272;2022-07-09T02:06:16;15.10;95.10
44767;DHT22;30487;48.716;9.272;2022-07-09T02:08:42;15.00;95.20
44767;DHT22;30487;48.716;9.272;2022-07-09T02:11:07;15.00;95.70
44767;DHT22;30487;48.716;9.272;2022-07-09T02:13:33;15.10;95.90
44767;DHT22;30487;48.716;9.272;2022-07-09T02:16:00;15.10;96.00
44767;DHT22;30487;48.716;9.272;2022-07-09T02:18:27;15.10;96.00
44767;DHT22;30487;48.716;9.272;2022-07-09T02:20:52;15.20;96.10
44767;DHT22;30487;48.716;9.272;2022-07-09T02:23:18;15.10;96.30
44767;DHT22;30487;48.716;9.272;2022-07-09T02:25:43;15.10;96.30
44767;DHT22;30487;48.716;9.272;2022-07-09T02:28:09;15.10;96.40
44767;DHT22;30487;48.716;9.272;2022-07-09T02:30:34;14.90;96.60
44767;DHT22;30487;48.716;9.272;2022-07-09T02:33:02;14.90;96.80
44767;DHT22;30487;48.716;9.272;2022-07-09T02:35:28;14.90;97.10
44767;DHT22;30487;48.716;9.272;2022-07-09T02:37:54;14.90;97.00
44767;DHT22;30487;48.716;9.272;2022-07-09T02:40:20;14.90;97.10
44767;DHT22;30487;48.716;9.272;2022-07-09T02:42:45;14.90;97.20
44767;DHT22;30487;48.716;9.272;2022-07-09T02:45:11;14.90;97.40
44767;DHT22;30487;48.716;9.272;2022-07-09T02:47:36;14.90;97.30
44767;DHT22;30487;48.716;9.272;2022-07-09T02:50:02;15.00;97.50
44767;DHT22;30487;48.716;9.272;2022-07-09T02:52:27;14.90;97.30
44767;DHT22;30487;48.716;9.272;2022-07-09T02:54:53;14.80;97.30
44767;DHT22;30487;48.716;9.272;2022-07-09T02:57:18;14.80;97.70
44767;DHT22;30487;48.716;9.272;2022-07-09T02:59:45;14.70;97.60
44767;DHT22;30487;48.716;9.272;2022-07-09T03:02:10;14.80;97.80
44767;DHT22;30487;48.716;9.272;2022-07-09T03:04:36;14.80;97.70
44767;DHT22;30487;48.716;9.272;2022-07-09T03:07:01;14.70;97.90
44767;DHT22;30487;48.716;9.272;2022-07-09T03:09:28;14.70;98.00
44767;DHT22;30487;48.716;9.272;2022-07-09T03:11:54;14.70;97.90
44767;DHT22;30487;48.716;9.272;2022-07-09T03:14:19;14.60;97.90
44767;DHT22;30487;48.716;9.272;2022-07-09T03:16:45;14.50;98.10
44767;DHT22;30487;48.716;9.272;2022-07-09T03:19:10;14.50;98.20
44767;DHT22;30487;48.716;9.272;2022-07-09T03:21:36;14.40;98.20
44767;DHT22;30487;48.716;9.272;2022-07-09T03:24:02;14.40;98.60
44767;DHT22;30487;48.716;9.272;2022-07-09T03:26:27;14.40;98.40
44767;DHT22;30487;48.716;9.272;2022-07-09T03:28:53;14.40;98.50
44767;DHT22;30487;48.716;9.272;2022-07-09T03:31:19;14.40;98.50
44767;DHT22;30487;48.716;9.272;2022-07-09T03:33:44;14.40;98.50
44767;DHT22;30487;48.716;9.272;2022-07-09T03:36:10;14.40;98.60
44767;DHT22;30487;48.716;9.272;2022-07-09T03:38:35;14.40;98.70
44767;DHT22;30487;48.716;9.272;2022-07-09T03:41:01;14.50;98.80
44767;DHT22;30487;48.716;9.272;2022-07-09T03:43:26;14.50;98.90
44767;DHT22;30487;48.716;9.272;2022-07-09T03:45:52;14.40;98.80
44767;DHT22;30487;48.716;9.272;2022-07-09T03:48:17;14.40;98.80
44767;DHT22;30487;48.716;9.272;2022-07-09T03:50:43;14.30;99.00
44767;DHT22;30487;48.716;9.272;2022-07-09T03:53:08;14.30;99.10
44767;DHT22;30487;48.716;9.272;2022-07-09T03:55:34;14.40;98.90
44767;DHT22;30487;48.716;9.272;2022-07-09T03:58:00;14.30;98.80
44767;DHT22;30487;48.716;9.272;2022-07-09T04:00:25;14.30;98.90
44767;DHT22;30487;48.716;9.272;2022-07-09T04:02:53;14.20;99.10
44767;DHT22;30487;48.716;9.272;2022-07-09T04:05:19;14.20;99.30
44767;DHT22;30487;48.716;9.272;2022-07-09T04:07:44;14.30;99.40
44767;DHT22;30487;48.716;9.272;2022-07-09T04:10:10;14.30;99.30
44767;DHT22;30487;48.716;9.272;2022-07-09T04:12:36;14.40;99.30
44767;DHT22;30487;48.716;9.272;2022-07-09T04:15:01;14.40;99.20
44767;DHT22;30487;48.716;9.272;2022-07-09T04:17:27;14.30;99.40
44767;DHT22;30487;48.716;9.272;2022-07-09T04:19:52;14.30;99.60
44767;DHT22;30487;48.716;9.272;2022-07-09T04:22:18;14.20;99.60
44767;DHT22;30487;48.716;9.272;2022-07-09T04:24:44;14.20;99.80
44767;DHT22;30487;48.716;9.272;2022-07-09T04:27:09;14.20;99.90
44767;DHT22;30487;48.716;9.272;2022-07-09T04:29:35;14.20;99.80
44767;DHT22;30487;48.716;9.272;2022-07-09T04:32:00;14.20;99.60
44767;DHT22;30487;48.716;9.272;2022-07-09T04:34:26;14.20;99.90
44767;DHT22;30487;48.716;9.272;2022-07-09T04:36:51;14.30;99.70
44767;DHT22;30487;48.716;9.272;2022-07-09T04:39:17;14.30;99.60
44767;DHT22;30487;48.716;9.272;2022-07-09T04:41:42;14.30;99.90
44767;DHT22;30487;48.716;9.272;2022-07-09T04:44:08;14.30;99.90
44767;DHT22;30487;48.716;9.272;2022-07-09T04:46:33;14.40;99.70
44767;DHT22;30487;48.716;9.272;2022-07-09T04:48:59;14.40;99.70
44767;DHT22;30487;48.716;9.272;2022-07-09T04:51:24;14.30;99.70
44767;DHT22;30487;48.716;9.272;2022-07-09T04:53:50;14.30;99.90
44767;DHT22;30487;48.716;9.272;2022-07-09T04:56:15;14.30;99.90
44767;DHT22;30487;48.716;9.272;2022-07-09T04:58:41;14.40;99.90
44767;DHT22;30487;48.716;9.272;2022-07-09T05:01:19;14.40;99.90
44767;DHT22;30487;48.716;9.272;2022-07-09T05:03:45;14.40;99.90
44767;DHT22;30487;48.716;9.272;2022-07-09T05:06:15;14.40;99.90
44767;DHT22;30487;48.716;9.272;2022-07-09T05:08:41;14.50;99.90
44767;DHT22;30487;48.716;9.272;2022-07-09T05:11:06;14.60;99.70
44767;DHT22;30487;48.716;9.272;2022-07-09T05:13:32;14.60;99.40
44767;DHT22;30487;48.716;9.272;2022-07-09T05:15:58;14.70;99.00
44767;DHT22;30487;48.716;9.272;2022-07-09T05:18:23;14.70;99.00
44767;DHT22;30487;48.716;9.272;2022-07-09T05:20:49;14.70;98.90
44767;DHT22;30487;48.716;9.272;2022-07-09T05:23:14;14.70;98.70
44767;DHT22;30487;48.716;9.272;2022-07-09T05:25:40;14.70;98.70
44767;DHT22;30487;48.716;9.272;2022-07-09T05:28:05;14.70;98.80
44767;DHT22;30487;48.716;9.272;2022-07-09T05:30:30;14.60;99.20
44767;DHT22;30487;48.716;9.272;2022-07-09T05:33:05;14.70;99.50
44767;DHT22;30487;48.716;9.272;2022-07-09T05:35:31;14.70;99.70
44767;DHT22;30487;48.716;9.272;2022-07-09T05:37:56;14.80;99.80
44767;DHT22;30487;48.716;9.272;2022-07-09T05:40:22;14.80;99.70
44767;DHT22;30487;48.716;9.272;2022-07-09T05:42:47;14.90;99.70
44767;DHT22;30487;48.716;9.272;2022-07-09T05:45:13;15.10;99.50
44767;DHT22;30487;48.716;9.272;2022-07-09T05:47:38;15.10;99.00
44767;DHT22;30487;48.716;9.272;2022-07-09T05:50:04;15.10;99.40
44767;DHT22;30487;48.716;9.272;2022-07-09T05:52:29;15.10;99.40
44767;DHT22;30487;48.716;9.272;2022-07-09T05:54:55;15.10;99.50
44767;DHT22;30487;48.716;9.272;2022-07-09T05:57:20;15.10;99.20
44767;DHT22;30487;48.716;9.272;2022-07-09T05:59:46;15.20;99.80
44767;DHT22;30487;48.716;9.272;2022-07-09T06:02:11;15.30;99.80
44767;DHT22;30487;48.716;9.272;2022-07-09T06:04:37;15.40;99.80
44767;DHT22;30487;48.716;9.272;2022-07-09T06:07:02;15.50;99.60
44767;DHT22;30487;48.716;9.272;2022-07-09T06:09:28;15.70;99.50
44767;DHT22;30487;48.716;9.272;2022-07-09T06:11:53;15.70;99.40
44767;DHT22;30487;48.716;9.272;2022-07-09T06:14:19;15.70;99.00
44767;DHT22;30487;48.716;9.272;2022-07-09T06:16:44;15.80;99.00
44767;DHT22;30487;48.716;9.272;2022-07-09T06:19:12;15.90;99.00
44767;DHT22;30487;48.716;9.272;2022-07-09T06:21:38;16.00;98.70
44767;DHT22;30487;48.716;9.272;2022-07-09T06:24:04;16.10;99.00
44767;DHT22;30487;48.716;9.272;2022-07-09T06:26:30;16.10;98.80
44767;DHT22;30487;48.716;9.272;2022-07-09T06:28:56;16.10;98.30
44767;DHT22;30487;48.716;9.272;2022-07-09T06:31:22;16.20;98.50
44767;DHT22;30487;48.716;9.272;2022-07-09T06:33:48;16.20;97.80
44767;DHT22;30487;48.716;9.272;2022-07-09T06:36:14;16.10;97.40
44767;DHT22;30487;48.716;9.272;2022-07-09T06:38:39;16.10;97.90
44767;DHT22;30487;48.716;9.272;2022-07-09T06:41:23;16.20;98.40
44767;DHT22;30487;48.716;9.272;2022-07-09T06:43:49;16.20;99.00
44767;DHT22;30487;48.716;9.272;2022-07-09T06:46:14;16.30;98.60
44767;DHT22;30487;48.716;9.272;2022-07-09T06:48:40;16.20;97.70
44767;DHT22;30487;48.716;9.272;2022-07-09T06:51:05;16.20;97.90
44767;DHT22;30487;48.716;9.272;2022-07-09T06:53:31;16.30;98.30
44767;DHT22;30487;48.716;9.272;2022-07-09T06:55:56;16.30;98.10
44767;DHT22;30487;48.716;9.272;2022-07-09T06:58:22;16.30;98.60
44767;DHT22;30487;48.716;9.272;2022-07-09T07:00:47;16.40;98.50
44767;DHT22;30487;48.716;9.272;2022-07-09T07:03:13;16.40;98.30
44767;DHT22;30487;48.716;9.272;2022-07-09T07:05:39;16.40;98.40
44767;DHT22;30487;48.716;9.272;2022-07-09T07:08:05;16.60;98.60
44767;DHT22;30487;48.716;9.272;2022-07-09T07:10:30;16.70;98.60
44767;DHT22;30487;48.716;9.272;2022-07-09T07:12:56;16.90;98.30
44767;DHT22;30487;48.716;9.272;2022-07-09T07:15:21;17.00;98.00
44767;DHT22;30487;48.716;9.272;2022-07-09T07:17:47;17.10;98.00
44767;DHT22;30487;48.716;9.272;2022-07-09T07:20:13;17.40;98.10
44767;DHT22;30487;48.716;9.272;2022-07-09T07:22:39;17.60;97.60
44767;DHT22;30487;48.716;9.272;2022-07-09T07:25:05;17.70;97.20
44767;DHT22;30487;48.716;9.272;2022-07-09T07:27:30;17.90;97.20
44767;DHT22;30487;48.716;9.272;2022-07-09T07:29:56;18.10;96.70
44767;DHT22;30487;48.716;9.272;2022-07-09T07:32:21;18.30;96.40
44767;DHT22;30487;48.716;9.272;2022-07-09T07:34:47;18.40;95.70
44767;DHT22;30487;48.716;9.272;2022-07-09T07:37:12;18.60;95.40
44767;DHT22;30487;48.716;9.272;2022-07-09T07:39:38;18.70;94.20
44767;DHT22;30487;48.716;9.272;2022-07-09T07:42:03;18.80;94.30
44767;DHT22;30487;48.716;9.272;2022-07-09T07:44:31;18.90;94.50
44767;DHT22;30487;48.716;9.272;2022-07-09T07:46:56;19.10;94.50
44767;DHT22;30487;48.716;9.272;2022-07-09T07:49:22;19.20;92.80
44767;DHT22;30487;48.716;9.272;2022-07-09T07:51:47;19.30;93.10
44767;DHT22;30487;48.716;9.272;2022-07-09T07:54:12;19.40;93.30
44767;DHT22;30487;48.716;9.272;2022-07-09T07:56:38;19.50;93.00
44767;DHT22;30487;48.716;9.272;2022-07-09T07:59:04;19.70;93.20
44767;DHT22;30487;48.716;9.272;2022-07-09T08:01:30;19.90;93.30
44767;DHT22;30487;48.716;9.272;2022-07-09T08:03:56;20.00;93.20
44767;DHT22;30487;48.716;9.272;2022-07-09T08:06:21;20.20;92.40
44767;DHT22;30487;48.716;9.272;2022-07-09T08:08:47;20.30;92.10
44767;DHT22;30487;48.716;9.272;2022-07-09T08:11:13;20.50;91.20
44767;DHT22;30487;48.716;9.272;2022-07-09T08:13:39;20.60;91.30
44767;DHT22;30487;48.716;9.272;2022-07-09T08:16:05;20.70;91.00
44767;DHT22;30487;48.716;9.272;2022-07-09T08:18:31;20.80;91.10
44767;DHT22;30487;48.716;9.272;2022-07-09T08:20:57;20.90;90.00
44767;DHT22;30487;48.716;9.272;2022-07-09T08:23:22;21.10;88.80
44767;DHT22;30487;48.716;9.272;2022-07-09T08:25:48;21.10;88.00
44767;DHT22;30487;48.716;9.272;2022-07-09T08:28:15;21.20;88.90
44767;DHT22;30487;48.716;9.272;2022-07-09T08:30:40;21.30;89.20
44767;DHT22;30487;48.716;9.272;2022-07-09T08:33:06;21.40;88.60
44767;DHT22;30487;48.716;9.272;2022-07-09T08:35:31;21.60;89.10
44767;DHT22;30487;48.716;9.272;2022-07-09T08:37:57;21.70;88.50
44767;DHT22;30487;48.716;9.272;2022-07-09T08:40:23;21.90;88.40
44767;DHT22;30487;48.716;9.272;2022-07-09T08:42:50;22.10;87.00
44767;DHT22;30487;48.716;9.272;2022-07-09T08:45:16;22.20;86.50
44767;DHT22;30487;48.716;9.272;2022-07-09T08:47:42;22.40;87.00
44767;DHT22;30487;48.716;9.272;2022-07-09T08:50:08;22.50;88.20
44767;DHT22;30487;48.716;9.272;2022-07-09T08:52:35;22.70;86.50
44767;DHT22;30487;48.716;9.272;2022-07-09T08:55:01;22.80;85.30
44767;DHT22;30487;48.716;9.272;2022-07-09T08:57:26;23.00;81.50
44767;DHT22;30487;48.716;9.272;2022-07-09T08:59:52;22.90;82.90
44767;DHT22;30487;48.716;9.272;2022-07-09T09:02:17;23.00;83.60
44767;DHT22;30487;48.716;9.272;2022-07-09T09:04:45;23.10;83.70
44767;DHT22;30487;48.716;9.272;2022-07-09T09:07:19;23.30;83.70
44767;DHT22;30487;48.716;9.272;2022-07-09T09:09:48;23.40;82.80
44767;DHT22;30487;48.716;9.272;2022-07-09T09:12:14;23.50;78.30
44767;DHT22;30487;48.716;9.272;2022-07-09T09:14:47;23.50;77.70
44767;DHT22;30487;48.716;9.272;2022-07-09T09:17:13;23.40;79.30
44767;DHT22;30487;48.716;9.272;2022-07-09T09:19:38;23.40;77.60
44767;DHT22;30487;48.716;9.272;2022-07-09T09:22:04;23.20;78.10
44767;DHT22;30487;48.716;9.272;2022-07-09T09:24:30;23.30;79.10
44767;DHT22;30487;48.716;9.272;2022-07-09T09:26:56;23.30;79.40
44767;DHT22;30487;48.716;9.272;2022-07-09T09:29:22;23.40;77.90
44767;DHT22;30487;48.716;9.272;2022-07-09T09:31:48;23.50;79.80
44767;DHT22;30487;48.716;9.272;2022-07-09T09:34:16;23.60;79.00
44767;DHT22;30487;48.716;9.272;2022-07-09T09:36:42;23.70;78.40
44767;DHT22;30487;48.716;9.272;2022-07-09T09:39:13;23.90;76.20
44767;DHT22;30487;48.716;9.272;2022-07-09T09:41:39;24.00;75.40
44767;DHT22;30487;48.716;9.272;2022-07-09T09:44:06;23.90;73.40
44767;DHT22;30487;48.716;9.272;2022-07-09T09:46:34;23.90;74.50
44767;DHT22;30487;48.716;9.272;2022-07-09T09:48:59;24.10;75.10
44767;DHT22;30487;48.716;9.272;2022-07-09T09:51:26;24.40;75.10
44767;DHT22;30487;48.716;9.272;2022-07-09T09:53:54;24.60;75.00
44767;DHT22;30487;48.716;9.272;2022-07-09T09:56:20;24.80;73.50
44767;DHT22;30487;48.716;9.272;2022-07-09T09:58:45;24.30;74.10
44767;DHT22;30487;48.716;9.272;2022-07-09T10:01:11;24.30;73.90
44767;DHT22;30487;48.716;9.272;2022-07-09T10:03:37;24.40;74.10
44767;DHT22;30487;48.716;9.272;2022-07-09T10:06:03;24.50;73.40
44767;DHT22;30487;48.716;9.272;2022-07-09T10:08:29;24.70;73.50
44767;DHT22;30487;48.716;9.272;2022-07-09T10:10:54;24.90;74.40
44767;DHT22;30487;48.716;9.272;2022-07-09T10:13:21;25.00;73.50
44767;DHT22;30487;48.716;9.272;2022-07-09T10:15:49;25.20;73.20
44767;DHT22;30487;48.716;9.272;2022-07-09T10:18:19;25.60;71.30
44767;DHT22;30487;48.716;9.272;2022-07-09T10:20:44;25.60;69.90
44767;DHT22;30487;48.716;9.272;2022-07-09T10:23:22;25.40;69.20
44767;DHT22;30487;48.716;9.272;2022-07-09T10:25:48;25.30;70.60
44767;DHT22;30487;48.716;9.272;2022-07-09T10:28:18;25.30;70.60
44767;DHT22;30487;48.716;9.272;2022-07-09T10:30:44;25.60;70.40
44767;DHT22;30487;48.716;9.272;2022-07-09T10:33:10;25.80;69.90
44767;DHT22;30487;48.716;9.272;2022-07-09T10:35:43;25.60;68.70
44767;DHT22;30487;48.716;9.272;2022-07-09T10:38:09;25.10;69.10
44767;DHT22;30487;48.716;9.272;2022-07-09T10:40:45;25.30;68.60
44767;DHT22;30487;48.716;9.272;2022-07-09T10:43:11;25.40;69.20
44767;DHT22;30487;48.716;9.272;2022-07-09T10:45:38;25.50;69.90
44767;DHT22;30487;48.716;9.272;2022-07-09T10:48:04;25.80;68.30
44767;DHT22;30487;48.716;9.272;2022-07-09T10:50:30;26.00;67.80
44767;DHT22;30487;48.716;9.272;2022-07-09T10:52:56;26.10;69.80
44767;DHT22;30487;48.716;9.272;2022-07-09T10:55:24;26.30;68.60
44767;DHT22;30487;48.716;9.272;2022-07-09T10:57:50;26.40;68.20
44767;DHT22;30487;48.716;9.272;2022-07-09T11:00:25;26.50;67.90
44767;DHT22;30487;48.716;9.272;2022-07-09T11:05:16;27.30;68.20
44767;DHT22;30487;48.716;9.272;2022-07-09T11:07:42;27.50;65.40
44767;DHT22;30487;48.716;9.272;2022-07-09T11:10:07;27.10;66.10
44767;DHT22;30487;48.716;9.272;2022-07-09T11:12:46;27.10;65.50
44767;DHT22;30487;48.716;9.272;2022-07-09T11:15:16;26.90;65.50
44767;DHT22;30487;48.716;9.272;2022-07-09T11:17:41;26.70;66.60
44767;DHT22;30487;48.716;9.272;2022-07-09T11:20:09;26.60;66.20
44767;DHT22;30487;48.716;9.272;2022-07-09T11:22:35;26.60;67.50
44767;DHT22;30487;48.716;9.272;2022-07-09T11:25:00;26.60;67.60
44767;DHT22;30487;48.716;9.272;2022-07-09T11:27:26;26.50;66.10
44767;DHT22;30487;48.716;9.272;2022-07-09T11:29:51;26.40;65.20
44767;DHT22;30487;48.716;9.272;2022-07-09T11:32:17;26.40;66.00
44767;DHT22;30487;48.716;9.272;2022-07-09T11:34:49;26.30;66.30
44767;DHT22;30487;48.716;9.272;2022-07-09T11:37:21;26.10;66.40
44767;DHT22;30487;48.716;9.272;2022-07-09T11:39:50;26.20;66.40
44767;DHT22;30487;48.716;9.272;2022-07-09T11:42:16;26.20;67.30
44767;DHT22;30487;48.716;9.272;2022-07-09T11:44:42;26.10;67.30
44767;DHT22;30487;48.716;9.272;2022-07-09T11:47:17;26.20;66.10
44767;DHT22;30487;48.716;9.272;2022-07-09T11:49:46;26.20;66.20
44767;DHT22;30487;48.716;9.272;2022-07-09T11:52:20;26.20;66.10
44767;DHT22;30487;48.716;9.272;2022-07-09T11:54:55;26.00;67.00
44767;DHT22;30487;48.716;9.272;2022-07-09T11:57:21;26.00;66.80
44767;DHT22;30487;48.716;9.272;2022-07-09T11:59:47;25.90;66.20
44767;DHT22;30487;48.716;9.272;2022-07-09T12:02:22;26.00;64.60
44767;DHT22;30487;48.716;9.272;2022-07-09T12:04:47;26.10;65.00
44767;DHT22;30487;48.716;9.272;2022-07-09T12:07:13;26.10;64.30
44767;DHT22;30487;48.716;9.272;2022-07-09T12:09:38;26.20;64.10
44767;DHT22;30487;48.716;9.272;2022-07-09T12:12:04;26.20;64.40
44767;DHT22;30487;48.716;9.272;2022-07-09T12:14:29;26.40;64.50
44767;DHT22;30487;48.716;9.272;2022-07-09T12:16:56;26.60;64.60
44767;DHT22;30487;48.716;9.272;2022-07-09T12:19:22;26.70;63.30
44767;DHT22;30487;48.716;9.272;2022-07-09T12:21:47;26.80;62.60
44767;DHT22;30487;48.716;9.272;2022-07-09T12:24:13;26.80;63.20
44767;DHT22;30487;48.716;9.272;2022-07-09T12:26:38;27.10;63.70
44767;DHT22;30487;48.716;9.272;2022-07-09T12:29:04;27.70;62.30
44767;DHT22;30487;48.716;9.272;2022-07-09T12:31:29;28.30;63.50
44767;DHT22;30487;48.716;9.272;2022-07-09T12:33:55;28.60;62.10
44767;DHT22;30487;48.716;9.272;2022-07-09T12:36:20;28.70;61.30
44767;DHT22;30487;48.716;9.272;2022-07-09T12:38:46;29.00;60.50
44767;DHT22;30487;48.716;9.272;2022-07-09T12:41:12;28.70;60.10
44767;DHT22;30487;48.716;9.272;2022-07-09T12:43:37;28.10;61.00
44767;DHT22;30487;48.716;9.272;2022-07-09T12:46:02;27.90;62.10
44767;DHT22;30487;48.716;9.272;2022-07-09T12:48:28;28.60;61.90
44767;DHT22;30487;48.716;9.272;2022-07-09T12:50:53;29.40;61.20
44767;DHT22;30487;48.716;9.272;2022-07-09T12:53:19;30.30;59.70
44767;DHT22;30487;48.716;9.272;2022-07-09T12:55:44;30.90;59.00
44767;DHT22;30487;48.716;9.272;2022-07-09T12:58:12;31.20;57.30
44767;DHT22;30487;48.716;9.272;2022-07-09T13:00:37;30.80;56.40
44767;DHT22;30487;48.716;9.272;2022-07-09T13:03:02;30.10;57.50
44767;DHT22;30487;48.716;9.272;2022-07-09T13:05:28;29.30;59.50
44767;DHT22;30487;48.716;9.272;2022-07-09T13:07:54;28.70;59.50
44767;DHT22;30487;48.716;9.272;2022-07-09T13:10:19;28.50;60.00
44767;DHT22;30487;48.716;9.272;2022-07-09T13:12:45;28.30;60.00
44767;DHT22;30487;48.716;9.272;2022-07-09T13:15:10;28.30;60.50
44767;DHT22;30487;48.716;9.272;2022-07-09T13:17:36;28.50;60.30
44767;DHT22;30487;48.716;9.272;2022-07-09T13:20:02;28.40;59.50
44767;DHT22;30487;48.716;9.272;2022-07-09T13:22:27;28.30;60.80
44767;DHT22;30487;48.716;9.272;2022-07-09T13:24:53;28.60;61.40
44767;DHT22;30487;48.716;9.272;2022-07-09T13:27:18;29.10;60.00
44767;DHT22;30487;48.716;9.272;2022-07-09T13:29:44;29.40;59.80
44767;DHT22;30487;48.716;9.272;2022-07-09T13:32:09;29.70;58.90
44767;DHT22;30487;48.716;9.272;2022-07-09T13:34:35;29.60;59.90
44767;DHT22;30487;48.716;9.272;2022-07-09T13:37:01;29.10;59.90
44767;DHT22;30487;48.716;9.272;2022-07-09T13:39:26;29.30;59.90
44767;DHT22;30487;48.716;9.272;2022-07-09T13:41:51;29.40;58.50
44767;DHT22;30487;48.716;9.272;2022-07-09T13:44:17;29.20;59.00
44767;DHT22;30487;48.716;9.272;2022-07-09T13:46:43;29.30;59.60
44767;DHT22;30487;48.716;9.272;2022-07-09T13:49:08;29.30;57.70
44767;DHT22;30487;48.716;9.272;2022-07-09T13:51:34;29.30;57.80
44767;DHT22;30487;48.716;9.272;2022-07-09T13:53:59;28.90;58.30
44767;DHT22;30487;48.716;9.272;2022-07-09T13:56:25;28.60;59.10
44767;DHT22;30487;48.716;9.272;2022-07-09T13:58:50;28.00;59.70
44767;DHT22;30487;48.716;9.272;2022-07-09T14:01:16;27.80;61.00
44767;DHT22;30487;48.716;9.272;2022-07-09T14:03:41;27.60;61.00
44767;DHT22;30487;48.716;9.272;2022-07-09T14:06:07;27.60;60.80
44767;DHT22;30487;48.716;9.272;2022-07-09T14:08:32;27.60;60.40
44767;DHT22;30487;48.716;9.272;2022-07-09T14:10:58;27.60;60.40
44767;DHT22;30487;48.716;9.272;2022-07-09T14:13:24;27.40;60.10
44767;DHT22;30487;48.716;9.272;2022-07-09T14:15:52;27.30;59.80
44767;DHT22;30487;48.716;9.272;2022-07-09T14:18:18;27.20;60.60
44767;DHT22;30487;48.716;9.272;2022-07-09T14:20:43;27.10;60.00
44767;DHT22;30487;48.716;9.272;2022-07-09T14:23:09;27.00;60.70
44767;DHT22;30487;48.716;9.272;2022-07-09T14:25:34;27.00;59.50
44767;DHT22;30487;48.716;9.272;2022-07-09T14:28:00;27.00;60.10
44767;DHT22;30487;48.716;9.272;2022-07-09T14:30:25;27.00;60.00
44767;DHT22;30487;48.716;9.272;2022-07-09T14:32:51;26.90;60.20
44767;DHT22;30487;48.716;9.272;2022-07-09T14:35:16;26.80;61.50
44767;DHT22;30487;48.716;9.272;2022-07-09T14:37:42;26.80;60.60
44767;DHT22;30487;48.716;9.272;2022-07-09T14:40:07;26.80;60.40
44767;DHT22;30487;48.716;9.272;2022-07-09T14:42:33;26.80;61.20
44767;DHT22;30487;48.716;9.272;2022-07-09T14:44:59;26.80;61.60
44767;DHT22;30487;48.716;9.272;2022-07-09T14:47:24;26.80;61.80
44767;DHT22;30487;48.716;9.272;2022-07-09T14:49:50;26.80;61.70
44767;DHT22;30487;48.716;9.272;2022-07-09T14:52:16;26.80;61.50
44767;DHT22;30487;48.716;9.272;2022-07-09T14:54:42;26.80;61.50
44767;DHT22;30487;48.716;9.272;2022-07-09T14:57:07;26.80;61.50
44767;DHT22;30487;48.716;9.272;2022-07-09T14:59:33;26.80;60.80
44767;DHT22;30487;48.716;9.272;2022-07-09T15:01:59;26.80;61.60
44767;DHT22;30487;48.716;9.272;2022-07-09T15:04:24;26.80;62.00
44767;DHT22;30487;48.716;9.272;2022-07-09T15:06:50;26.90;61.40
44767;DHT22;30487;48.716;9.272;2022-07-09T15:09:15;27.00;61.00
44767;DHT22;30487;48.716;9.272;2022-07-09T15:11:41;27.00;59.80
44767;DHT22;30487;48.716;9.272;2022-07-09T15:14:06;26.90;60.40
44767;DHT22;30487;48.716;9.272;2022-07-09T15:16:32;26.90;60.10
44767;DHT22;30487;48.716;9.272;2022-07-09T15:18:57;26.90;61.10
44767;DHT22;30487;48.716;9.272;2022-07-09T15:21:23;26.80;62.20
44767;DHT22;30487;48.716;9.272;2022-07-09T15:23:51;26.70;59.70
44767;DHT22;30487;48.716;9.272;2022-07-09T15:26:16;26.70;61.60